createdAt,value
2023-05-20T00:00:20.041Z,62.45
2023-05-20T00:02:46.531Z,62.62
2023-05-20T00:05:12.990Z,62.78
2023-05-20T00:07:39.780Z,63.56
2023-05-20T00:10:06.679Z,63.42
2023-05-20T00:12:33.119Z,64.12
2023-05-20T00:14:59.575Z,63.98
2023-05-20T00:17:28.149Z,64.62
2023-05-20T00:19:54.719Z,64.39
2023-05-20T00:22:22.201Z,65.16
2023-05-20T00:24:48.771Z,64.66
2023-05-20T00:27:15.257Z,64.99
2023-05-20T00:29:41.655Z,65.31
2023-05-20T00:32:08.257Z,65.45
2023-05-20T00:34:34.747Z,66.05
2023-05-20T00:37:01.279Z,65.28
2023-05-20T00:39:27.703Z,65.46
2023-05-20T00:41:54.109Z,66.35
2023-05-20T00:44:23.983Z,66.52
2023-05-20T00:46:50.547Z,66.32
2023-05-20T00:49:17.464Z,66.70
2023-05-20T00:51:43.880Z,67.45
2023-05-20T00:54:10.684Z,67.32
2023-05-20T00:56:37.358Z,67.35
2023-05-20T00:59:04.799Z,68.16
2023-05-20T01:01:31.281Z,67.86
2023-05-20T01:03:58.282Z,67.88
2023-05-20T01:06:24.785Z,68.23
2023-05-20T01:08:51.229Z,68.38
2023-05-20T01:11:29.108Z,68.64
2023-05-20T01:14:01.126Z,68.46
2023-05-20T01:16:29.846Z,68.74
2023-05-20T01:18:58.901Z,69.02
2023-05-20T01:21:27.448Z,69.26
2023-05-20T01:23:53.896Z,69.02
2023-05-20T01:26:21.785Z,69.50
2023-05-20T01:28:48.237Z,69.35
2023-05-20T01:31:20.750Z,69.47
2023-05-20T01:33:51.878Z,69.80
2023-05-20T01:36:21.199Z,69.48
2023-05-20T01:38:49.222Z,69.57
2023-05-20T01:41:16.743Z,68.95
2023-05-20T01:43:44.357Z,69.80
2023-05-20T01:46:10.993Z,69.57
2023-05-20T01:48:38.307Z,69.65
2023-05-20T01:51:04.785Z,70.24
2023-05-20T01:53:31.305Z,70.41
2023-05-20T01:55:57.718Z,70.20
2023-05-20T01:58:24.115Z,70.66
2023-05-20T02:00:50.646Z,70.53
2023-05-20T02:03:17.139Z,70.68
2023-05-20T02:05:44.110Z,70.40
2023-05-20T02:08:10.701Z,71.07
2023-05-20T02:10:37.152Z,70.96
2023-05-20T02:13:03.545Z,71.68
2023-05-20T02:15:29.993Z,71.09
2023-05-20T02:17:58.011Z,71.19
2023-05-20T02:20:24.733Z,71.51
2023-05-20T02:22:51.166Z,71.41
2023-05-20T02:25:17.602Z,71.53
2023-05-20T02:27:44.010Z,71.30
2023-05-20T02:30:10.635Z,71.88
2023-05-20T02:32:37.099Z,72.51
2023-05-20T02:35:03.526Z,71.91
2023-05-20T02:37:30.013Z,72.02
2023-05-20T02:39:56.521Z,72.37
2023-05-20T02:42:22.989Z,72.31
2023-05-20T02:44:49.496Z,72.72
2023-05-20T02:47:15.916Z,72.22
2023-05-20T02:49:42.415Z,72.29
2023-05-20T02:52:08.957Z,72.61
2023-05-20T02:54:35.369Z,73.01
2023-05-20T02:57:02.203Z,72.58
2023-05-20T02:59:28.636Z,72.76
2023-05-20T03:01:55.118Z,72.73
2023-05-20T03:04:21.748Z,73.49
2023-05-20T03:06:48.312Z,72.56
2023-05-20T03:09:14.850Z,72.19
2023-05-20T03:11:41.282Z,73.08
2023-05-20T03:14:07.713Z,73.22
2023-05-20T03:16:35.417Z,72.94
2023-05-20T03:19:02.494Z,72.31
2023-05-20T03:21:29.271Z,72.42
2023-05-20T03:23:55.907Z,72.31
2023-05-20T03:26:23.207Z,71.84
2023-05-20T03:28:49.624Z,72.19
2023-05-20T03:31:16.044Z,72.66
2023-05-20T03:33:42.465Z,71.84
2023-05-20T03:36:08.890Z,71.38
2023-05-20T03:38:35.619Z,71.52
2023-05-20T03:41:02.095Z,71.00
2023-05-20T03:43:28.884Z,71.53
2023-05-20T03:45:55.293Z,71.12
2023-05-20T03:48:21.696Z,71.12
2023-05-20T03:50:48.207Z,71.54
2023-05-20T03:53:14.597Z,71.25
2023-05-20T03:55:42.381Z,71.60
2023-05-20T03:58:08.803Z,71.09
2023-05-20T04:00:35.644Z,71.30
2023-05-20T04:03:02.173Z,71.22
2023-05-20T04:05:28.648Z,71.04
2023-05-20T04:07:55.074Z,70.92
2023-05-20T04:10:21.962Z,70.22
2023-05-20T04:12:48.414Z,70.57
2023-05-20T04:15:15.021Z,70.50
2023-05-20T04:17:41.987Z,70.62
2023-05-20T04:20:08.651Z,71.44
2023-05-20T04:22:35.172Z,70.48
2023-05-20T04:25:03.620Z,70.86
2023-05-20T04:27:30.400Z,71.16
2023-05-20T04:29:58.697Z,71.38
2023-05-20T04:32:26.752Z,70.35
2023-05-20T04:34:55.577Z,71.06
2023-05-20T04:37:22.562Z,70.29
2023-05-20T04:39:49.935Z,70.84
2023-05-20T04:42:20.170Z,70.48
2023-05-20T04:44:46.583Z,70.59
2023-05-20T04:47:13.833Z,71.65
2023-05-20T04:49:40.440Z,71.53
2023-05-20T04:52:06.845Z,71.19
2023-05-20T04:54:33.297Z,70.96
2023-05-20T04:56:59.890Z,71.56
2023-05-20T04:59:26.312Z,70.58
2023-05-20T05:01:52.812Z,71.27
2023-05-20T05:04:19.354Z,72.48
2023-05-20T05:06:48.210Z,71.25
2023-05-20T05:09:15.295Z,71.03
2023-05-20T05:11:41.731Z,72.16
2023-05-20T05:14:08.120Z,71.59
2023-05-20T05:16:34.593Z,71.49
2023-05-20T05:19:01.045Z,71.31
2023-05-20T05:21:27.473Z,71.49
2023-05-20T05:23:54.812Z,72.13
2023-05-20T05:26:22.337Z,71.60
2023-05-20T05:28:48.744Z,72.00
2023-05-20T05:31:15.186Z,71.95
2023-05-20T05:33:41.593Z,71.71
2023-05-20T05:36:07.999Z,71.52
2023-05-20T05:38:34.400Z,70.90
2023-05-20T05:41:01.274Z,70.91
2023-05-20T05:43:27.691Z,70.95
2023-05-20T05:45:54.267Z,71.93
2023-05-20T05:48:22.324Z,71.68
2023-05-20T05:50:48.783Z,70.78
2023-05-20T05:53:15.233Z,71.30
2023-05-20T05:55:41.736Z,72.16
2023-05-20T05:58:08.146Z,72.17
2023-05-20T06:00:34.675Z,71.29
2023-05-20T06:03:01.431Z,71.91
2023-05-20T06:05:29.650Z,71.56
2023-05-20T06:07:56.474Z,70.86
2023-05-20T06:10:23.017Z,70.80
2023-05-20T06:12:49.504Z,70.73
2023-05-20T06:15:16.081Z,71.30
2023-05-20T06:17:42.612Z,70.49
2023-05-20T06:20:09.362Z,70.48
2023-05-20T06:22:35.787Z,69.95
2023-05-20T06:25:02.545Z,69.79
2023-05-20T06:27:29.083Z,69.67
2023-05-20T06:29:55.695Z,69.64
2023-05-20T06:32:22.161Z,69.72
2023-05-20T06:34:48.750Z,70.19
2023-05-20T06:37:15.374Z,69.98
2023-05-20T06:39:41.782Z,70.16
2023-05-20T06:42:08.229Z,70.38
2023-05-20T06:44:34.649Z,69.92
2023-05-20T06:47:01.073Z,69.11
2023-05-20T06:49:28.376Z,68.45
2023-05-20T06:51:54.825Z,69.18
2023-05-20T06:54:21.957Z,69.69
2023-05-20T06:56:48.381Z,68.46
2023-05-20T06:59:14.790Z,68.80
2023-05-20T07:01:41.289Z,69.24
2023-05-20T07:04:07.766Z,68.47
2023-05-20T07:06:34.213Z,68.65
2023-05-20T07:09:01.020Z,68.05
2023-05-20T07:11:27.434Z,67.91
2023-05-20T07:13:53.898Z,67.29
2023-05-20T07:16:20.576Z,66.85
2023-05-20T07:18:47.131Z,66.43
2023-05-20T07:21:13.658Z,65.45
2023-05-20T07:23:40.146Z,65.40
2023-05-20T07:26:06.625Z,66.05
2023-05-20T07:28:33.053Z,65.36
2023-05-20T07:31:00.279Z,65.54
2023-05-20T07:33:26.786Z,64.68
2023-05-20T07:35:54.563Z,65.42
2023-05-20T07:38:21.314Z,64.86
2023-05-20T07:40:47.759Z,64.98
2023-05-20T07:43:14.623Z,65.41
2023-05-20T07:45:41.052Z,63.82
2023-05-20T07:48:08.952Z,65.23
2023-05-20T07:50:35.976Z,64.07
2023-05-20T07:53:02.451Z,63.62
2023-05-20T07:55:28.889Z,63.08
2023-05-20T07:57:55.399Z,62.99
2023-05-20T08:00:21.856Z,61.93
2023-05-20T08:02:48.338Z,61.93
2023-05-20T08:05:14.854Z,61.89
2023-05-20T08:07:41.297Z,60.59
2023-05-20T08:10:08.305Z,61.82
2023-05-20T08:12:34.732Z,61.08
2023-05-20T08:15:01.137Z,60.97
2023-05-20T08:17:27.605Z,60.31
2023-05-20T08:19:54.204Z,60.28
2023-05-20T08:22:20.604Z,58.10
2023-05-20T08:24:47.054Z,60.07
2023-05-20T08:27:16.495Z,60.22
2023-05-20T08:29:45.120Z,59.77
2023-05-20T08:32:11.652Z,58.93
2023-05-20T08:34:38.220Z,58.40
2023-05-20T08:37:04.779Z,57.32
2023-05-20T08:39:31.201Z,57.41
2023-05-20T08:41:58.592Z,58.38
2023-05-20T08:44:26.362Z,57.16
2023-05-20T08:46:53.168Z,58.58
2023-05-20T08:49:20.244Z,57.12
2023-05-20T08:51:47.387Z,57.43
2023-05-20T08:54:16.811Z,56.66
2023-05-20T08:56:43.987Z,55.26
2023-05-20T08:59:10.487Z,55.05
2023-05-20T09:01:45.774Z,55.17
2023-05-20T09:04:12.613Z,54.39
2023-05-20T09:06:43.700Z,54.61
2023-05-20T09:09:13.390Z,56.20
2023-05-20T09:11:41.439Z,56.60
2023-05-20T09:14:08.452Z,57.23
2023-05-20T09:16:35.600Z,57.07
2023-05-20T09:19:02.158Z,58.41
2023-05-20T09:21:29.119Z,58.67
2023-05-20T09:23:59.352Z,58.40
2023-05-20T09:26:30.027Z,58.43
2023-05-20T09:28:57.225Z,55.79
2023-05-20T09:31:28.426Z,57.04
2023-05-20T09:33:55.605Z,56.88
2023-05-20T09:36:23.691Z,56.96
2023-05-20T09:38:53.511Z,56.89
2023-05-20T09:41:24.118Z,57.52
2023-05-20T09:43:52.556Z,56.72
2023-05-20T09:46:20.273Z,57.36
2023-05-20T09:48:46.900Z,57.36
2023-05-20T09:51:14.623Z,57.52
2023-05-20T09:53:41.428Z,57.45
2023-05-20T09:56:07.877Z,56.72
2023-05-20T09:58:36.241Z,57.66
2023-05-20T10:01:02.817Z,57.01
2023-05-20T10:03:29.968Z,56.22
2023-05-20T10:06:17.364Z,55.51
2023-05-20T10:09:12.400Z,55.73
2023-05-20T10:11:57.284Z,56.84
2023-05-20T10:14:40.717Z,56.83
2023-05-20T10:17:25.283Z,57.15
2023-05-20T10:19:58.237Z,57.97
2023-05-20T10:22:29.418Z,57.71
2023-05-20T10:25:01.145Z,58.95
2023-05-20T10:27:27.557Z,59.19
2023-05-20T10:29:56.073Z,57.36
2023-05-20T10:32:29.786Z,57.40
2023-05-20T10:35:09.083Z,56.04
2023-05-20T10:37:44.077Z,58.40
2023-05-20T10:40:12.869Z,57.69
2023-05-20T10:42:39.688Z,55.77
2023-05-20T10:45:07.240Z,55.17
2023-05-20T10:47:34.484Z,54.06
2023-05-20T10:50:07.509Z,53.87
2023-05-20T10:52:36.626Z,53.51
2023-05-20T10:55:04.802Z,53.84
2023-05-20T10:57:32.199Z,53.19
2023-05-20T10:59:59.201Z,54.22
2023-05-20T11:02:28.771Z,54.82
2023-05-20T11:04:58.703Z,54.15
2023-05-20T11:07:26.867Z,52.89
2023-05-20T11:09:53.315Z,53.28
2023-05-20T11:12:22.805Z,54.26
2023-05-20T11:14:50.101Z,54.48
2023-05-20T11:17:17.369Z,52.77
2023-05-20T11:19:43.780Z,51.30
2023-05-20T11:22:10.411Z,50.80
2023-05-20T11:24:37.609Z,51.07
2023-05-20T11:27:04.570Z,51.18
2023-05-20T11:29:32.224Z,51.39
2023-05-20T11:32:00.119Z,50.24
2023-05-20T11:34:28.216Z,49.81
2023-05-20T11:36:58.952Z,50.16
2023-05-20T11:39:27.573Z,49.53
2023-05-20T11:41:54.083Z,50.31
2023-05-20T11:44:21.122Z,47.83
2023-05-20T11:46:48.299Z,49.65
2023-05-20T11:49:15.822Z,49.81
2023-05-20T11:51:43.516Z,50.91
2023-05-20T11:54:10.559Z,50.65
2023-05-20T11:56:38.292Z,50.06
2023-05-20T11:59:06.058Z,48.00
2023-05-20T12:01:40.742Z,47.73
2023-05-20T12:04:08.667Z,45.79
2023-05-20T12:06:37.179Z,45.62
2023-05-20T12:09:07.076Z,46.13
2023-05-20T12:11:35.552Z,46.34
2023-05-20T12:14:05.113Z,46.65
2023-05-20T12:16:33.322Z,46.45
2023-05-20T12:19:00.128Z,46.72
2023-05-20T12:21:26.871Z,46.60
2023-05-20T12:23:57.633Z,47.81
2023-05-20T12:26:25.864Z,47.05
2023-05-20T12:28:52.498Z,46.99
2023-05-20T12:31:19.185Z,46.06
2023-05-20T12:33:45.764Z,46.11
2023-05-20T12:36:13.122Z,45.22
2023-05-20T12:38:40.072Z,46.28
2023-05-20T12:41:06.706Z,45.97
2023-05-20T12:43:34.948Z,48.22
2023-05-20T12:46:03.608Z,48.30
2023-05-20T12:48:30.069Z,46.40
2023-05-20T12:50:56.500Z,46.42
2023-05-20T12:53:22.927Z,45.08
2023-05-20T12:55:49.397Z,44.06
2023-05-20T12:58:15.952Z,45.63
2023-05-20T13:00:42.378Z,47.95
2023-05-20T13:03:08.964Z,47.85
2023-05-20T13:05:35.471Z,46.87
2023-05-20T13:08:01.897Z,47.49
2023-05-20T13:10:28.427Z,48.43
2023-05-20T13:12:56.424Z,46.75
2023-05-20T13:15:22.834Z,44.30
2023-05-20T13:17:49.273Z,43.93
2023-05-20T13:20:17.768Z,43.61
2023-05-20T13:22:46.137Z,41.77
2023-05-20T13:25:12.527Z,42.22
2023-05-20T13:27:39.021Z,43.48
2023-05-20T13:30:06.838Z,38.77
2023-05-20T13:32:33.310Z,37.77
2023-05-20T13:34:59.775Z,36.68
2023-05-20T13:37:26.400Z,36.11
2023-05-20T13:39:52.808Z,36.52
2023-05-20T13:42:19.351Z,36.67
2023-05-20T13:44:45.766Z,35.81
2023-05-20T13:47:12.185Z,31.99
2023-05-20T13:49:38.615Z,33.93
2023-05-20T13:52:05.606Z,37.35
2023-05-20T13:54:32.004Z,30.76
2023-05-20T13:56:58.410Z,30.93
2023-05-20T13:59:24.845Z,31.13
2023-05-20T14:01:51.388Z,29.40
2023-05-20T14:04:17.825Z,29.97
2023-05-20T14:06:44.285Z,27.93
2023-05-20T14:09:10.867Z,30.20
2023-05-20T14:11:37.394Z,29.36
2023-05-20T14:14:04.037Z,27.20
2023-05-20T14:16:31.277Z,26.85
2023-05-20T14:18:57.865Z,28.21
2023-05-20T14:21:24.320Z,27.45
2023-05-20T14:23:50.814Z,27.19
2023-05-20T14:26:17.244Z,26.31
2023-05-20T14:28:43.685Z,28.63
2023-05-20T14:31:11.043Z,26.73
2023-05-20T14:33:37.528Z,25.41
2023-05-20T14:36:04.233Z,29.74
2023-05-20T14:38:30.938Z,32.85
2023-05-20T14:40:57.410Z,29.88
2023-05-20T14:43:23.912Z,28.89
2023-05-20T14:45:50.446Z,28.39
2023-05-20T14:48:16.850Z,26.76
2023-05-20T14:50:43.274Z,26.07
2023-05-20T14:53:09.671Z,27.05
2023-05-20T14:55:36.106Z,28.65
2023-05-20T14:58:02.519Z,32.14
2023-05-20T15:00:28.937Z,31.41
2023-05-20T15:02:55.823Z,26.43
2023-05-20T15:05:22.324Z,28.56
2023-05-20T15:07:48.857Z,27.24
2023-05-20T15:10:15.332Z,27.47
2023-05-20T15:12:42.002Z,26.79
2023-05-20T15:15:09.661Z,24.82
2023-05-20T15:17:36.216Z,26.42
2023-05-20T15:20:02.955Z,26.96
2023-05-20T15:22:29.436Z,28.33
2023-05-20T15:24:55.936Z,26.50
2023-05-20T15:27:22.354Z,27.30
2023-05-20T15:29:48.810Z,29.82
2023-05-20T15:32:15.388Z,29.87
2023-05-20T15:34:41.810Z,25.01
2023-05-20T15:37:08.257Z,29.02
2023-05-20T15:39:37.869Z,27.85
2023-05-20T15:42:05.130Z,28.00
2023-05-20T15:44:31.650Z,29.38
2023-05-20T15:46:58.272Z,28.60
2023-05-20T15:49:24.666Z,28.43
2023-05-20T15:52:02.221Z,26.90
2023-05-20T15:54:30.525Z,28.76
2023-05-20T15:56:57.898Z,29.64
2023-05-20T15:59:24.395Z,28.24
2023-05-20T16:01:50.879Z,28.79
2023-05-20T16:04:17.429Z,27.00
2023-05-20T16:06:43.941Z,30.30
2023-05-20T16:09:10.345Z,28.19
2023-05-20T16:11:36.756Z,28.32
2023-05-20T16:14:03.183Z,31.33
2023-05-20T16:16:29.628Z,28.62
2023-05-20T16:18:56.248Z,29.52
2023-05-20T16:21:24.952Z,29.99
2023-05-20T16:23:52.728Z,30.10
2023-05-20T16:26:19.244Z,30.73
2023-05-20T16:28:45.650Z,29.78
2023-05-20T16:31:12.147Z,39.23
2023-05-20T16:33:38.584Z,41.04
2023-05-20T16:36:05.261Z,40.50
2023-05-20T16:38:32.551Z,36.74
2023-05-20T16:40:58.961Z,32.29
2023-05-20T16:43:25.625Z,30.38
2023-05-20T16:45:52.120Z,32.04
2023-05-20T16:48:18.576Z,32.66
2023-05-20T16:50:45.051Z,33.52
2023-05-20T16:53:11.486Z,39.44
2023-05-20T16:55:37.862Z,41.52
2023-05-20T16:58:04.297Z,44.03
2023-05-20T17:00:31.153Z,43.53
2023-05-20T17:02:57.707Z,43.42
2023-05-20T17:05:25.479Z,44.45
2023-05-20T17:07:51.915Z,44.06
2023-05-20T17:10:18.354Z,42.75
2023-05-20T17:12:44.764Z,43.99
2023-05-20T17:15:11.395Z,44.29
2023-05-20T17:17:37.879Z,45.73
2023-05-20T17:20:05.366Z,46.78
2023-05-20T17:22:31.784Z,47.82
2023-05-20T17:24:58.192Z,47.80
2023-05-20T17:27:24.604Z,47.15
2023-05-20T17:29:51.269Z,48.01
2023-05-20T17:32:17.659Z,47.76
2023-05-20T17:34:44.066Z,47.80
2023-05-20T17:37:10.614Z,47.76
2023-05-20T17:39:37.037Z,48.67
2023-05-20T17:42:03.452Z,47.55
2023-05-20T17:44:29.856Z,48.17
2023-05-20T17:46:56.259Z,49.15
2023-05-20T17:49:22.666Z,47.24
2023-05-20T17:51:49.065Z,47.70
2023-05-20T17:54:15.472Z,49.25
2023-05-20T17:56:44.331Z,49.65
2023-05-20T17:59:10.741Z,49.52
2023-05-20T18:01:37.393Z,50.14
2023-05-20T18:04:05.500Z,50.47
2023-05-20T18:06:34.389Z,50.82
2023-05-20T18:09:01.908Z,50.46
2023-05-20T18:11:28.539Z,50.80
2023-05-20T18:13:58.569Z,51.01
2023-05-20T18:16:26.926Z,50.83
2023-05-20T18:18:53.916Z,51.18
2023-05-20T18:21:21.596Z,51.08
2023-05-20T18:23:48.365Z,51.10
2023-05-20T18:26:15.948Z,51.57
2023-05-20T18:28:42.676Z,51.97
2023-05-20T18:31:09.186Z,52.29
2023-05-20T18:33:37.016Z,52.18
2023-05-20T18:36:03.906Z,51.51
2023-05-20T18:38:30.524Z,52.02
2023-05-20T18:40:56.989Z,52.37
2023-05-20T18:43:23.398Z,52.62
2023-05-20T18:45:50.023Z,52.41
2023-05-20T18:48:25.536Z,53.62
2023-05-20T18:50:52.862Z,53.18
2023-05-20T18:53:19.274Z,53.47
2023-05-20T18:55:47.345Z,54.34
2023-05-20T18:58:14.022Z,54.06
2023-05-20T19:00:41.106Z,54.60
2023-05-20T19:03:07.636Z,54.64
2023-05-20T19:05:34.262Z,54.35
2023-05-20T19:08:02.482Z,54.85
2023-05-20T19:10:29.395Z,54.65
2023-05-20T19:12:56.114Z,55.23
2023-05-20T19:15:22.529Z,55.09
2023-05-20T19:17:49.017Z,55.09
2023-05-20T19:20:15.419Z,55.75
2023-05-20T19:22:41.826Z,55.69
2023-05-20T19:25:08.570Z,56.09
2023-05-20T19:27:35.000Z,56.40
2023-05-20T19:30:01.397Z,56.62
2023-05-20T19:32:27.916Z,56.22
2023-05-20T19:34:54.376Z,56.57
2023-05-20T19:37:22.932Z,56.65
2023-05-20T19:39:49.674Z,57.53
2023-05-20T19:42:16.108Z,57.01
2023-05-20T19:44:42.735Z,56.79
2023-05-20T19:47:09.152Z,57.21
2023-05-20T19:49:35.674Z,57.61
2023-05-20T19:52:02.092Z,57.46
2023-05-20T19:54:28.607Z,57.44
2023-05-20T19:56:55.108Z,57.38
2023-05-20T19:59:21.531Z,57.07
2023-05-20T20:01:48.004Z,57.69
2023-05-20T20:04:17.058Z,57.38
2023-05-20T20:06:43.478Z,57.08
2023-05-20T20:09:10.530Z,57.50
2023-05-20T20:11:37.135Z,56.93
2023-05-20T20:14:03.545Z,57.34
2023-05-20T20:16:30.335Z,57.32
2023-05-20T20:18:56.922Z,57.00
2023-05-20T20:21:25.686Z,57.45
2023-05-20T20:23:52.846Z,57.14
2023-05-20T20:26:22.607Z,57.22
2023-05-20T20:28:49.051Z,57.31
2023-05-20T20:31:15.486Z,57.39
2023-05-20T20:33:41.894Z,57.34
2023-05-20T20:36:09.064Z,57.35
2023-05-20T20:38:37.549Z,57.18
2023-05-20T20:41:04.043Z,57.42
2023-05-20T20:43:30.611Z,57.50
2023-05-20T20:45:57.037Z,57.20
2023-05-20T20:48:26.992Z,57.53
2023-05-20T20:50:53.840Z,57.26
2023-05-20T20:53:20.456Z,58.02
2023-05-20T20:55:46.886Z,57.66
2023-05-20T20:58:15.315Z,58.16
2023-05-20T21:00:44.904Z,58.64
2023-05-20T21:03:12.646Z,58.16
2023-05-20T21:05:39.222Z,58.28
2023-05-20T21:08:08.188Z,58.64
2023-05-20T21:10:36.932Z,59.04
2023-05-20T21:13:03.781Z,59.34
2023-05-20T21:15:30.276Z,59.01
2023-05-20T21:17:56.719Z,59.31
2023-05-20T21:20:23.181Z,59.61
2023-05-20T21:22:49.597Z,59.82
2023-05-20T21:25:16.064Z,60.47
2023-05-20T21:27:42.525Z,60.36
2023-05-20T21:30:10.722Z,60.30
2023-05-20T21:32:37.754Z,60.84
2023-05-20T21:35:04.941Z,60.45
2023-05-20T21:37:31.384Z,60.88
2023-05-20T21:39:57.873Z,61.07
2023-05-20T21:42:24.288Z,61.21
2023-05-20T21:44:51.558Z,61.32
2023-05-20T21:47:19.607Z,61.46
2023-05-20T21:49:47.422Z,61.29
2023-05-20T21:52:14.186Z,61.46
2023-05-20T21:54:41.395Z,61.79
2023-05-20T21:57:07.877Z,62.10
2023-05-20T21:59:34.299Z,62.34
2023-05-20T22:02:01.182Z,62.13
2023-05-20T22:04:28.500Z,62.43
2023-05-20T22:06:56.075Z,62.64
2023-05-20T22:09:22.540Z,62.76
2023-05-20T22:11:49.631Z,62.56
2023-05-20T22:14:16.683Z,62.65
2023-05-20T22:16:46.431Z,63.46
2023-05-20T22:19:15.199Z,63.41
2023-05-20T22:21:50.320Z,63.73
2023-05-20T22:24:18.004Z,63.27
2023-05-20T22:26:44.617Z,63.70
2023-05-20T22:29:11.039Z,64.07
2023-05-20T22:31:38.086Z,64.10
2023-05-20T22:34:05.387Z,64.25
2023-05-20T22:36:34.019Z,64.06
2023-05-20T22:39:04.655Z,64.22
2023-05-20T22:41:31.332Z,64.61
2023-05-20T22:43:58.269Z,64.32
2023-05-20T22:46:25.115Z,64.45
2023-05-20T22:48:55.320Z,64.50
2023-05-20T22:51:22.177Z,64.55
2023-05-20T22:53:48.965Z,65.15
2023-05-20T22:56:16.178Z,65.06
2023-05-20T22:58:43.049Z,65.28
2023-05-20T23:01:10.490Z,65.76
2023-05-20T23:03:38.006Z,65.84
2023-05-20T23:06:04.674Z,65.70
2023-05-20T23:08:31.292Z,65.21
2023-05-20T23:10:57.752Z,65.86
2023-05-20T23:13:24.159Z,65.69
2023-05-20T23:15:50.559Z,65.95
2023-05-20T23:18:18.121Z,65.84
2023-05-20T23:20:44.601Z,65.62
2023-05-20T23:23:11.674Z,65.76
2023-05-20T23:25:38.601Z,66.34
2023-05-20T23:28:05.731Z,66.80
2023-05-20T23:30:32.171Z,66.32
2023-05-20T23:32:58.693Z,66.50
2023-05-20T23:35:25.683Z,66.20
2023-05-20T23:37:52.374Z,66.71
2023-05-20T23:40:19.151Z,66.83
2023-05-20T23:42:45.636Z,66.70
2023-05-20T23:45:12.246Z,66.80
2023-05-20T23:47:38.688Z,67.58
2023-05-20T23:50:05.512Z,67.19
2023-05-20T23:52:31.934Z,67.29
2023-05-20T23:54:58.638Z,67.80
2023-05-20T23:57:25.045Z,67.36
2023-05-20T23:59:51.605Z,67.29
